Hovedside
METAR-TAF:

METAR-TAF

Lufthavner :

Obihiro, Japan

breddegrad: 42-44N, lengdegrad: 143-13E, høyde over havet: 149 m

Gjeldene værobservasjon

Denne rapporten ble laget for 5 timer og 15 minutter siden, klokken 11:00 UTC
Vind 2 kt fra Vest-nordvest
Temperatur -11°C
Luftfuktighet 66%
Trykk 1013 hPa
Sikt 10 km eller mer
Få skyer i en høyde av 4000 ft

METAR: RJCB 041100Z 29002KT 9999 FEW040 M11/M16 Q1013

Tid: 01:15 (16:15 UTC)

Varsel

Denne rapporten ble laget for 5 timer og 10 minutter siden, klokken 11:05 UTC
Varsel gyldig fra 04. klokken 12 UTC til 05. klokken 18 UTC
Vind 4 kt fra Sør
Sikt 10 km eller mer
Få skyer i en høyde av 3000 ft
Blir
fra 05. klokken 00 UTC til 05. klokken 03 UTC
Vind 8 kt fra Nordvest

TAF: RJCB 041105Z 0412/0518 19004KT 9999 FEW030 BECMG 0500/0503 31008KT

Værobservasjoner og værvarsel for over 4000 flyplasser (METAR- og TAF-rapporter).

Tilgjengelige stasjoner er representert av de røde og gule prikkene på kartet.

Hold musepekeren over prikken for å se navnet på stasjonen.

Klikk så for å se værobservasjoner og -varsler.

For å forandre kartet kan du klikke på den grønne knappen med svart kryss for å zoome inn, på den grønne knappen med strek for å zoome ut, eller på de grønne pilene for å se tilstøtende kart.


METAR-TAF: